메인 페이지
METAR-TAF:

METAR-TAF

공항 :

마르델플라타, 아르헨티나

위도: 37-56S, 경도: 057-35W, 고도: 18m

현재 날씨관측

예보는 35분 전, 14:00시(UTC)에 발표되었습니다.
4kt서남서풍과 북서풍을 오가는
온도 9°C
습도 49%
기압 1021 hPa
시정 10km 이상
1500m 미만 상공 구름 및 적란운 없음

METAR: SAZM 201400Z 27004KT 240V310 CAVOK 09/M01 Q1021

시각: 11:35 (14:35 UTC)

예보

예보는 3 시간 35분 전, 11:00시(UTC)에 발표되었습니다.
예보 대상 시간: 20일 12시부터 21일 12시까지 (UTC)
남서5kt
시정 10km 이상
1500m 미만 상공 구름 및 적란운 없음
전환 중
20일 15시부터 20일 17시까지 (UTC)
시정 10km 이상
고도 2000ft 상공 구름 보통
고도 6000ft 상공 구름 많음
전환 중
20일 18시부터 20일 20시까지 (UTC)
10kt
전환 중
20일 23시부터 21일 01시까지 (UTC)
북동15kt, 순간 최대 풍속 25kt
일시적
21일 09시부터 21일 11시까지 (UTC)
북동20kt, 순간 최대 풍속 30kt
시정: 5000m
고도 4000ft 상공 구름 조금, 타워링 적운.
고도 5000ft 상공 흐림
비,

TAF: SAZM 201100Z 2012/2112 23005KT CAVOK TX12/2018Z TN08/2111Z BECMG 2015/2017 9999 SCT020 BKN060 BECMG 2018/2020 09010KT BECMG 2023/2101 05015G25KT TEMPO 2109/2111 05020G30KT 5000 RA FEW040TCU OVC050

4,000개 이상의 공항 관측 자료 및 예보 (METAR 및 TAF 보고).

지도상에서 검색 가능한 기상관측소가 노란 점과 빨간 점으로 표시되어 있습니다.

기상관측소 명을 보려면 표시 위로 마우스를 이동하세요.

날씨 관측과 예보를 보려면 클릭하세요.

지도 변경 : 확대하려면 엑스 표시가 있는 녹색 버튼, 축소하려면 빼기 표시가 있는 녹색 버튼, 다음 페이지의 지도를 보려면 녹색 화살표를 클릭하세요.


METAR-TAF: